Date,TemperatureHighF,TemperatureAvgF,TemperatureLowF,DewpointHighF,DewpointAvgF,DewpointLowF,HumidityHigh,HumidityAvg,HumidityLow,PressureMaxIn,PressureMinIn,WindSpeedMaxMPH,WindSpeedAvgMPH,GustSpeedMaxMPH,PrecipitationSumIn
2013-1-1,35.0,16.5,27.0,-99.9,-99.9,-99.9,0,0,100,29.49,29.06,23,14,26,0.00
2013-1-2,33.0,6.4,17.0,-99.9,-99.9,-99.9,0,0,100,29.34,29.08,14,0,19,0.00
2013-1-3,32.0,7.7,23.0,-99.9,-99.9,-99.9,0,0,100,29.44,29.33,21,13,26,0.00
2013-1-4,29.0,8.7,26.0,-99.9,-99.9,-99.9,0,0,100,29.57,29.44,24,19,29,0.00
2013-1-5,30.0,7.7,26.0,-99.9,-99.9,-99.9,0,0,100,29.53,29.25,28,21,35,0.00
2013-1-6,27.0,6.9,22.0,-99.9,-99.9,-99.9,0,0,100,29.33,29.26,14,3,18,0.00
2013-1-7,23.0,5.0,9.0,-99.9,-99.9,-99.9,0,0,100,29.62,29.31,6,-58,7,0.00
2013-1-8,18.0,3.9,6.0,-99.9,-99.9,-99.9,0,0,100,30.03,29.63,10,-19,11,0.00
2013-1-9,20.0,4.4,10.0,-99.9,-99.9,-99.9,0,0,100,30.04,29.55,26,14,30,0.00
2013-1-10,25.0,6.2,18.0,-99.9,-99.9,-99.9,0,0,100,29.75,29.47,32,17,38,0.00
2013-1-11,30.0,7.5,22.0,-99.9,-99.9,-99.9,0,0,100,29.80,29.39,35,19,44,0.00
2013-1-12,30.0,7.4,24.0,-99.9,-99.9,-99.9,0,0,100,29.81,29.05,28,19,33,0.00
2013-1-13,34.0,26.3,28.0,-99.9,-99.9,-99.9,0,0,100,29.21,29.04,23,18,31,0.00
2013-1-14,17.0,3.6,9.0,-99.9,-99.9,-99.9,0,0,100,29.77,29.23,24,12,31,0.00
2013-1-15,10.0,1.5,1.0,-99.9,-99.9,-99.9,0,0,100,30.19,29.76,16,11,20,0.00
2013-1-16,-1.0,-1.4,-10.0,-99.9,-99.9,-99.9,0,0,100,30.29,30.19,16,6,20,0.00
2013-1-17,-2.0,-1.8,-12.0,-99.9,-99.9,-99.9,0,0,100,30.40,30.27,14,4,15,0.00
2013-1-18,4.0,-0.0,-11.0,-99.9,-99.9,-99.9,0,0,100,30.54,30.38,22,12,29,0.00
2013-1-19,21.0,1.8,2.0,-99.9,-99.9,-99.9,0,0,100,30.39,29.69,30,19,38,0.00
2013-1-20,26.0,7.0,21.0,-99.9,-99.9,-99.9,0,0,100,29.89,29.60,33,23,41,0.00
2013-1-21,29.0,6.9,21.0,-99.9,-99.9,-99.9,0,0,100,29.93,29.83,19,11,22,0.00
2013-1-22,24.0,4.7,12.0,-99.9,-99.9,-99.9,0,0,100,29.84,29.65,17,9,20,0.00
2013-1-23,17.0,3.9,11.0,-99.9,-99.9,-99.9,0,0,100,29.77,29.65,22,7,27,0.00
2013-1-24,11.0,1.8,3.0,-99.9,-99.9,-99.9,0,0,100,30.19,29.77,34,17,41,0.00
2013-1-25,9.0,1.1,-3.0,-99.9,-99.9,-99.9,0,0,100,30.24,30.18,18,7,23,0.00
2013-1-26,2.0,-1.8,-12.0,-99.9,-99.9,-99.9,0,0,100,30.40,30.22,12,4,14,0.00
2013-1-27,5.0,-1.0,-14.0,-99.9,-99.9,-99.9,0,0,100,30.63,30.39,26,9,36,0.00
2013-1-28,8.0,1.3,1.0,-99.9,-99.9,-99.9,0,0,100,30.63,29.96,41,19,51,0.00
2013-1-29,10.0,1.7,2.0,-99.9,-99.9,-99.9,0,0,100,29.96,29.56,44,24,51,0.00
2013-1-30,17.0,3.2,6.0,-99.9,-99.9,-99.9,0,0,100,29.58,29.51,22,13,28,0.00
2013-1-31,21.0,2.7,-6.0,-99.9,-99.9,-99.9,0,0,100,30.07,29.65,17,11,20,0.00